createdAt,value
2017-07-11T00:01:58.305Z,32.87
2017-07-11T00:04:30.842Z,32.90
2017-07-11T00:07:03.117Z,33.20
2017-07-11T00:09:35.396Z,34.70
2017-07-11T00:12:07.791Z,35.70
2017-07-11T00:14:40.085Z,36.67
2017-07-11T00:17:12.521Z,35.17
2017-07-11T00:19:44.917Z,36.67
2017-07-11T00:22:17.589Z,35.27
2017-07-11T00:24:59.993Z,35.17
2017-07-11T00:27:32.207Z,35.13
2017-07-11T00:30:05.567Z,35.83
2017-07-11T00:32:37.941Z,38.47
2017-07-11T00:35:10.694Z,37.17
2017-07-11T00:37:43.080Z,36.20
2017-07-11T00:40:16.245Z,38.70
2017-07-11T00:42:48.565Z,37.17
2017-07-11T00:45:21.079Z,36.90
2017-07-11T00:47:54.698Z,36.30
2017-07-11T00:50:27.086Z,36.33
2017-07-11T00:52:59.176Z,37.20
2017-07-11T00:55:31.687Z,36.50
2017-07-11T00:58:04.016Z,36.87
2017-07-11T01:00:36.890Z,37.67
2017-07-11T01:03:08.886Z,37.87
2017-07-11T01:05:42.352Z,36.10
2017-07-11T01:08:14.694Z,37.00
2017-07-11T01:10:47.086Z,38.43
2017-07-11T01:13:19.432Z,37.77
2017-07-11T01:15:51.934Z,35.93
2017-07-11T01:18:24.150Z,36.63
2017-07-11T01:20:56.489Z,35.07
2017-07-11T01:23:28.884Z,33.23
2017-07-11T01:26:01.346Z,36.10
2017-07-11T01:28:33.542Z,32.23
2017-07-11T01:31:06.025Z,34.23
2017-07-11T01:33:38.289Z,34.07
2017-07-11T01:36:10.629Z,33.27
2017-07-11T01:38:43.057Z,29.80
2017-07-11T01:41:15.298Z,28.73
2017-07-11T01:43:47.459Z,28.93
2017-07-11T01:46:19.840Z,27.40
2017-07-11T01:48:52.226Z,26.10
2017-07-11T01:51:24.640Z,28.50
2017-07-11T01:53:57.047Z,25.70
2017-07-11T01:56:29.432Z,26.17
2017-07-11T01:59:01.933Z,25.10
2017-07-11T02:01:35.202Z,24.57
2017-07-11T02:04:07.670Z,25.10
2017-07-11T02:06:40.030Z,23.87
2017-07-11T02:09:12.347Z,24.00
2017-07-11T02:11:44.806Z,20.87
2017-07-11T02:14:17.357Z,21.20
2017-07-11T02:16:49.873Z,21.23
2017-07-11T02:19:22.148Z,21.83
2017-07-11T02:21:54.913Z,20.10
2017-07-11T02:24:26.782Z,20.80
2017-07-11T02:26:59.102Z,20.17
2017-07-11T02:29:32.201Z,21.20
2017-07-11T02:32:04.800Z,20.27
2017-07-11T02:34:37.295Z,20.93
2017-07-11T02:37:09.642Z,20.40
2017-07-11T02:39:41.967Z,24.70
2017-07-11T02:42:14.541Z,23.60
2017-07-11T02:44:46.795Z,23.13
2017-07-11T02:47:19.165Z,22.67
2017-07-11T02:49:51.548Z,23.33
2017-07-11T02:52:23.817Z,24.70
2017-07-11T02:54:56.173Z,23.43
2017-07-11T02:57:28.546Z,22.33
2017-07-11T03:00:00.872Z,22.97
2017-07-11T03:02:33.224Z,22.70
2017-07-11T03:05:05.628Z,23.90
2017-07-11T03:07:38.352Z,23.70
2017-07-11T03:10:10.414Z,24.07
2017-07-11T03:12:43.668Z,24.37
2017-07-11T03:15:16.082Z,26.03
2017-07-11T03:17:48.522Z,25.17
2017-07-11T03:20:20.874Z,24.93
2017-07-11T03:22:53.264Z,25.63
2017-07-11T03:25:25.548Z,26.30
2017-07-11T03:27:57.976Z,27.10
2017-07-11T03:30:30.353Z,28.90
2017-07-11T03:33:03.792Z,28.70
2017-07-11T03:35:36.105Z,29.00
2017-07-11T03:38:08.460Z,28.57
2017-07-11T03:40:40.712Z,29.80
2017-07-11T03:43:13.102Z,31.70
2017-07-11T03:45:45.485Z,32.40
2017-07-11T03:48:18.650Z,32.73
2017-07-11T03:50:51.193Z,33.60
2017-07-11T03:53:23.592Z,33.03
2017-07-11T03:55:56.041Z,33.30
2017-07-11T03:58:28.483Z,32.37
2017-07-11T04:01:00.864Z,33.60
2017-07-11T04:03:34.090Z,33.97
2017-07-11T04:06:06.641Z,34.50
2017-07-11T04:08:39.102Z,32.33
2017-07-11T04:11:11.536Z,33.67
2017-07-11T04:13:43.931Z,31.93
2017-07-11T04:16:16.330Z,34.10
2017-07-11T04:18:49.551Z,31.93
2017-07-11T04:21:22.016Z,33.13
2017-07-11T04:23:55.333Z,33.20
2017-07-11T04:26:27.660Z,33.27
2017-07-11T04:29:00.084Z,35.20
2017-07-11T04:31:32.428Z,34.03
2017-07-11T04:34:05.005Z,33.07
2017-07-11T04:36:37.369Z,30.53
2017-07-11T04:39:09.762Z,30.77
2017-07-11T04:41:42.209Z,27.13
2017-07-11T04:44:14.618Z,27.70
2017-07-11T04:46:46.903Z,26.40
2017-07-11T04:49:19.340Z,28.90
2017-07-11T04:51:51.626Z,30.63
2017-07-11T04:54:24.093Z,32.87
2017-07-11T04:56:56.546Z,32.50
2017-07-11T04:59:28.916Z,33.00
2017-07-11T05:02:01.359Z,32.77
2017-07-11T05:04:33.823Z,34.27
2017-07-11T05:07:06.152Z,33.53
2017-07-11T05:09:38.690Z,33.50
2017-07-11T05:12:11.013Z,33.90
2017-07-11T05:14:43.337Z,35.10
2017-07-11T05:17:15.692Z,33.77
2017-07-11T05:19:48.025Z,33.80
2017-07-11T05:22:20.401Z,35.00
2017-07-11T05:24:53.638Z,30.60
2017-07-11T05:27:25.999Z,32.43
2017-07-11T05:29:58.285Z,31.13
2017-07-11T05:32:30.733Z,31.70
2017-07-11T05:35:03.047Z,31.27
2017-07-11T05:37:35.177Z,30.47
2017-07-11T05:40:07.444Z,28.50
2017-07-11T05:42:39.815Z,27.53
2017-07-11T05:45:12.090Z,29.57
2017-07-11T05:47:44.424Z,24.70
2017-07-11T05:50:17.861Z,26.07
2017-07-11T05:52:50.205Z,25.27
2017-07-11T05:55:22.681Z,22.90
2017-07-11T05:57:55.089Z,24.73
2017-07-11T06:00:27.509Z,25.10
2017-07-11T06:02:59.897Z,23.70
2017-07-11T06:05:32.397Z,23.50
2017-07-11T06:08:04.847Z,23.10
2017-07-11T06:10:37.248Z,24.33
2017-07-11T06:13:09.544Z,25.40
2017-07-11T06:15:41.913Z,23.07
2017-07-11T06:18:14.343Z,23.97
2017-07-11T06:20:46.720Z,24.27
2017-07-11T06:23:19.108Z,24.20
2017-07-11T06:25:52.281Z,25.33
2017-07-11T06:28:24.742Z,23.60
2017-07-11T06:30:58.010Z,25.53
2017-07-11T06:33:30.621Z,23.00
2017-07-11T06:36:03.204Z,22.03
2017-07-11T06:38:35.654Z,18.53
2017-07-11T06:41:08.305Z,17.83
2017-07-11T06:43:40.381Z,16.47
2017-07-11T06:46:13.112Z,17.17
2017-07-11T06:48:45.232Z,16.93
2017-07-11T06:51:17.488Z,15.57
2017-07-11T06:53:49.960Z,14.73
2017-07-11T06:56:22.424Z,13.30
2017-07-11T06:58:54.756Z,15.30
2017-07-11T07:01:27.567Z,16.23
2017-07-11T07:03:59.613Z,17.17
2017-07-11T07:06:31.988Z,17.93
2017-07-11T07:09:04.389Z,18.30
2017-07-11T07:11:36.786Z,18.80
2017-07-11T07:14:09.341Z,18.77
2017-07-11T07:16:41.637Z,19.63
2017-07-11T07:19:13.876Z,20.13
2017-07-11T07:21:46.362Z,19.83
2017-07-11T07:24:18.768Z,19.60
2017-07-11T07:26:51.525Z,18.07
2017-07-11T07:29:24.338Z,18.03
2017-07-11T07:31:56.917Z,15.07
2017-07-11T07:34:28.885Z,15.50
2017-07-11T07:37:01.534Z,13.20
2017-07-11T07:39:33.776Z,13.17
2017-07-11T07:42:06.157Z,13.97
2017-07-11T07:44:38.667Z,13.10
2017-07-11T07:47:11.024Z,13.17
2017-07-11T07:49:43.340Z,12.43
2017-07-11T07:52:15.713Z,12.07
2017-07-11T07:54:48.116Z,10.60
2017-07-11T07:57:20.522Z,10.50
2017-07-11T07:59:52.973Z,11.53
2017-07-11T08:02:25.529Z,11.07
2017-07-11T08:04:57.958Z,10.33
2017-07-11T08:07:30.317Z,10.83
2017-07-11T08:10:02.768Z,10.70
2017-07-11T08:12:35.485Z,11.40
2017-07-11T08:15:07.450Z,12.83
2017-07-11T08:17:39.894Z,13.73
2017-07-11T08:20:12.465Z,14.60
2017-07-11T08:22:44.602Z,15.90
2017-07-11T08:25:17.013Z,17.10
2017-07-11T08:27:49.417Z,16.70
2017-07-11T08:30:21.650Z,16.03
2017-07-11T08:32:55.138Z,17.00
2017-07-11T08:35:27.472Z,16.30
2017-07-11T08:38:00.005Z,16.40
2017-07-11T08:40:32.399Z,17.50
2017-07-11T08:43:04.784Z,19.20
2017-07-11T08:45:37.069Z,19.03
2017-07-11T08:48:09.560Z,18.57
2017-07-11T08:50:41.845Z,19.00
2017-07-11T08:53:14.567Z,17.93
2017-07-11T08:55:46.777Z,19.83
2017-07-11T08:58:18.906Z,19.30
2017-07-11T09:00:51.289Z,20.27
2017-07-11T09:03:23.749Z,22.50
2017-07-11T09:05:56.244Z,20.20
2017-07-11T09:08:28.616Z,19.53
2017-07-11T09:11:00.970Z,17.50
2017-07-11T09:13:33.347Z,19.00
2017-07-11T09:16:05.721Z,12.67
2017-07-11T09:18:38.065Z,14.67
2017-07-11T09:21:10.349Z,14.30
2017-07-11T09:23:43.131Z,12.97
2017-07-11T09:26:15.202Z,12.93
2017-07-11T09:28:47.574Z,13.37
2017-07-11T09:31:19.939Z,14.43
2017-07-11T09:33:52.456Z,13.23
2017-07-11T09:36:24.901Z,14.00
2017-07-11T09:38:57.169Z,13.43
2017-07-11T09:41:29.845Z,13.80
2017-07-11T09:44:01.840Z,14.60
2017-07-11T09:46:34.193Z,14.90
2017-07-11T09:49:06.684Z,13.47
2017-07-11T09:51:39.193Z,16.50
2017-07-11T09:54:11.592Z,13.60
2017-07-11T09:56:44.248Z,15.33
2017-07-11T09:59:17.486Z,16.40
2017-07-11T10:01:49.999Z,16.13
2017-07-11T10:04:22.609Z,15.40
2017-07-11T10:06:55.025Z,16.43
2017-07-11T10:09:27.237Z,15.17
2017-07-11T10:12:00.055Z,15.50
2017-07-11T10:14:33.133Z,15.60
2017-07-11T10:17:05.489Z,16.67
2017-07-11T10:19:37.902Z,15.33
2017-07-11T10:22:10.388Z,16.63
2017-07-11T10:24:42.873Z,15.37
2017-07-11T10:27:15.229Z,15.80
2017-07-11T10:29:47.658Z,16.07
2017-07-11T10:45:25.288Z,16.83
2017-07-11T10:47:57.518Z,15.87
2017-07-11T10:50:29.733Z,16.57
2017-07-11T10:53:02.211Z,15.57
2017-07-11T10:55:34.449Z,14.47
2017-07-11T10:58:07.033Z,14.87
2017-07-11T11:00:39.891Z,14.53
2017-07-11T11:03:12.613Z,13.60
2017-07-11T11:05:46.036Z,15.87
2017-07-11T11:08:18.544Z,14.10
2017-07-11T11:10:51.053Z,14.47
2017-07-11T11:13:23.406Z,16.83
2017-07-11T11:15:55.717Z,16.43
2017-07-11T11:18:28.281Z,14.47
2017-07-11T11:21:00.473Z,15.97
2017-07-11T11:23:32.934Z,15.30
2017-07-11T11:26:05.339Z,17.20
2017-07-11T11:28:38.593Z,15.53
2017-07-11T11:31:11.115Z,16.50
2017-07-11T11:33:43.766Z,16.27
2017-07-11T11:36:15.945Z,15.90
2017-07-11T11:38:48.513Z,19.03
2017-07-11T11:41:20.684Z,18.53
2017-07-11T11:43:53.363Z,18.17
2017-07-11T11:46:25.938Z,17.60
2017-07-11T11:48:57.982Z,15.40
2017-07-11T11:51:30.352Z,17.80
2017-07-11T11:54:03.085Z,17.60
2017-07-11T11:56:35.792Z,18.00
2017-07-11T11:59:08.730Z,18.43
2017-07-11T12:01:41.054Z,15.70
2017-07-11T12:04:13.244Z,17.20
2017-07-11T12:06:45.584Z,17.17
2017-07-11T12:09:17.914Z,16.53
2017-07-11T12:11:50.301Z,18.20
2017-07-11T12:14:22.636Z,18.60
2017-07-11T12:16:54.973Z,16.97
2017-07-11T12:19:27.325Z,16.90
2017-07-11T12:21:59.669Z,16.77
2017-07-11T12:24:32.040Z,19.53
2017-07-11T12:27:04.413Z,19.30
2017-07-11T12:29:36.838Z,17.53
2017-07-11T12:32:09.192Z,18.43
2017-07-11T12:34:41.421Z,18.43
2017-07-11T12:37:13.862Z,18.57
2017-07-11T12:39:46.341Z,18.33
2017-07-11T12:42:18.692Z,19.10
2017-07-11T12:44:51.945Z,18.23
2017-07-11T12:47:24.429Z,18.50
2017-07-11T12:49:56.844Z,18.23
2017-07-11T12:52:29.321Z,19.20
2017-07-11T12:55:01.721Z,17.90
2017-07-11T12:57:34.120Z,14.93
2017-07-11T13:00:06.639Z,16.80
2017-07-11T13:02:39.060Z,13.40
2017-07-11T13:05:11.446Z,14.47
2017-07-11T13:07:43.786Z,14.20
2017-07-11T13:10:17.437Z,14.30
2017-07-11T13:12:49.492Z,12.00
2017-07-11T13:15:21.901Z,12.23
2017-07-11T13:17:54.258Z,11.37
2017-07-11T13:20:26.693Z,9.97
2017-07-11T13:22:59.015Z,9.00
2017-07-11T13:25:31.292Z,9.17
2017-07-11T13:28:03.641Z,10.50
2017-07-11T13:30:35.953Z,9.93
2017-07-11T13:33:08.380Z,10.00
2017-07-11T13:35:40.784Z,8.90
2017-07-11T13:38:13.808Z,9.17
2017-07-11T13:40:46.545Z,10.73
2017-07-11T13:43:18.858Z,9.10
2017-07-11T13:45:52.098Z,9.97
2017-07-11T13:48:24.573Z,9.73
2017-07-11T13:50:56.913Z,9.73
2017-07-11T13:53:29.432Z,10.07
2017-07-11T13:56:01.916Z,10.27
2017-07-11T13:58:34.276Z,9.40
2017-07-11T14:01:06.801Z,10.10
2017-07-11T14:03:39.254Z,10.00
2017-07-11T14:06:11.730Z,8.60
2017-07-11T14:08:44.170Z,9.23
2017-07-11T14:11:16.614Z,8.80
2017-07-11T14:13:49.036Z,7.93
2017-07-11T14:16:21.425Z,8.67
2017-07-11T14:18:53.894Z,8.80
2017-07-11T14:21:26.194Z,8.30
2017-07-11T14:23:58.620Z,8.07
2017-07-11T14:26:31.126Z,6.80
2017-07-11T14:29:03.480Z,5.80
2017-07-11T14:31:35.876Z,6.00
2017-07-11T14:34:08.214Z,5.73
2017-07-11T14:36:40.625Z,5.30
2017-07-11T14:39:12.955Z,5.70
2017-07-11T14:41:46.192Z,5.17
2017-07-11T14:44:18.669Z,5.40
2017-07-11T14:46:52.032Z,4.90
2017-07-11T14:49:25.366Z,5.33
2017-07-11T14:51:57.969Z,5.60
2017-07-11T14:54:30.310Z,5.40
2017-07-11T14:57:02.762Z,5.57
2017-07-11T14:59:35.194Z,4.93
2017-07-11T15:02:07.513Z,5.20
2017-07-11T15:04:39.977Z,5.07
2017-07-11T15:07:12.594Z,4.90
2017-07-11T15:09:45.071Z,4.87
2017-07-11T15:12:17.523Z,6.50
2017-07-11T15:14:50.021Z,5.20
2017-07-11T15:17:22.657Z,5.00
2017-07-11T15:19:54.728Z,4.17
2017-07-11T15:22:27.212Z,4.60
2017-07-11T15:24:59.674Z,5.40
2017-07-11T15:27:32.105Z,5.70
2017-07-11T15:30:04.930Z,7.67
2017-07-11T15:32:37.034Z,7.80
2017-07-11T15:35:09.413Z,8.17
2017-07-11T15:37:42.058Z,9.20
2017-07-11T15:40:14.036Z,11.17
2017-07-11T15:42:47.490Z,10.13
2017-07-11T15:45:19.873Z,10.80
2017-07-11T15:47:52.227Z,9.40
2017-07-11T15:50:24.548Z,10.03
2017-07-11T15:52:56.933Z,10.50
2017-07-11T15:55:29.181Z,11.03
2017-07-11T15:58:01.458Z,9.77
2017-07-11T16:00:33.923Z,10.93
2017-07-11T16:03:06.380Z,10.90
2017-07-11T16:05:39.380Z,11.27
2017-07-11T16:08:12.823Z,10.60
2017-07-11T16:10:45.452Z,10.10
2017-07-11T16:13:17.946Z,10.70
2017-07-11T16:15:50.214Z,12.47
2017-07-11T16:18:22.738Z,10.80
2017-07-11T16:20:55.082Z,10.80
2017-07-11T16:23:28.180Z,11.27
2017-07-11T16:26:00.788Z,11.10
2017-07-11T16:28:33.209Z,10.80
2017-07-11T16:31:05.559Z,11.40
2017-07-11T16:33:38.029Z,12.77
2017-07-11T16:36:11.549Z,11.43
2017-07-11T16:38:43.757Z,11.60
2017-07-11T16:41:16.158Z,12.27
2017-07-11T16:43:48.536Z,12.80
2017-07-11T16:46:20.931Z,11.83
2017-07-11T16:48:53.385Z,12.53
2017-07-11T18:13:35.438Z,11.33
2017-07-11T18:16:07.832Z,10.20
2017-07-11T18:18:40.251Z,10.23
2017-07-11T18:21:12.622Z,12.07
2017-07-11T18:23:46.055Z,12.90
2017-07-11T18:26:18.609Z,12.20
2017-07-11T18:28:51.077Z,14.20
2017-07-11T18:31:23.381Z,13.40
2017-07-11T18:33:55.652Z,12.80
2017-07-11T18:36:28.017Z,13.10
2017-07-11T18:39:00.401Z,13.17
2017-07-11T18:41:32.682Z,13.47
2017-07-11T18:44:05.084Z,13.20
2017-07-11T18:46:37.539Z,12.67
2017-07-11T18:49:18.070Z,13.30
2017-07-11T18:51:50.500Z,14.47
2017-07-11T18:54:23.020Z,13.40
2017-07-11T18:56:57.296Z,13.70
2017-07-11T18:59:30.007Z,14.00
2017-07-11T19:02:02.110Z,13.00
2017-07-11T19:04:34.500Z,12.90
2017-07-11T19:07:07.009Z,13.77
2017-07-11T19:09:39.395Z,13.20
2017-07-11T19:12:11.784Z,13.43
2017-07-11T19:14:46.033Z,13.80
2017-07-11T19:17:18.452Z,14.40
2017-07-11T19:19:50.772Z,14.60
2017-07-11T19:22:23.269Z,14.67
2017-07-11T19:24:55.444Z,14.70
2017-07-11T19:27:27.669Z,15.23
2017-07-11T19:30:00.389Z,15.10
2017-07-11T19:32:32.692Z,15.27
2017-07-11T19:35:05.235Z,15.10
2017-07-11T19:37:38.522Z,14.97
2017-07-11T19:40:10.850Z,16.30
2017-07-11T19:42:43.206Z,14.50
2017-07-11T19:45:15.624Z,15.00
2017-07-11T19:47:47.952Z,16.10
2017-07-11T19:50:20.217Z,14.80
2017-07-11T19:52:52.493Z,15.60
2017-07-11T19:55:26.027Z,15.63
2017-07-11T19:57:58.490Z,14.90
2017-07-11T20:00:30.636Z,14.90
2017-07-11T20:03:03.031Z,14.17
2017-07-11T20:05:35.364Z,14.17
2017-07-11T20:08:07.670Z,14.83
2017-07-11T20:10:40.005Z,13.37
2017-07-11T20:13:13.386Z,14.53
2017-07-11T20:15:46.077Z,12.87
2017-07-11T20:18:18.395Z,13.00
2017-07-11T20:20:50.884Z,13.20
2017-07-11T20:23:23.224Z,13.40
2017-07-11T20:25:55.564Z,11.90
2017-07-11T20:28:27.905Z,12.73
2017-07-11T20:31:00.672Z,11.63
2017-07-11T20:33:32.644Z,13.10
2017-07-11T20:36:05.372Z,12.70
2017-07-11T20:38:37.849Z,12.30
2017-07-11T20:41:09.987Z,12.80
2017-07-11T20:43:42.569Z,13.73
2017-07-11T20:46:14.671Z,12.50
2017-07-11T20:48:47.080Z,12.87
2017-07-11T20:51:20.665Z,12.27
2017-07-11T20:53:53.270Z,13.33
2017-07-11T20:56:26.509Z,13.27
2017-07-11T20:58:59.201Z,12.37
2017-07-11T21:01:31.537Z,12.17
2017-07-11T21:04:03.792Z,12.73
2017-07-11T21:06:42.953Z,12.70
2017-07-11T21:09:15.604Z,12.37
2017-07-11T21:11:48.377Z,12.67
2017-07-11T21:14:20.438Z,12.27
2017-07-11T21:16:52.837Z,13.20
2017-07-11T21:19:25.205Z,13.13
2017-07-11T21:21:57.778Z,11.77
2017-07-11T21:24:30.131Z,13.73
2017-07-11T21:27:02.697Z,12.07
2017-07-11T21:29:34.933Z,12.93
2017-07-11T21:32:07.772Z,13.03
2017-07-11T21:34:39.681Z,14.00
2017-07-11T21:37:12.020Z,13.63
2017-07-11T21:39:44.461Z,12.90
2017-07-11T21:42:16.956Z,12.87
2017-07-11T21:44:49.327Z,11.63
2017-07-11T21:47:21.758Z,12.30
2017-07-11T21:49:54.589Z,12.27
2017-07-11T21:52:26.609Z,11.73
2017-07-11T21:54:58.988Z,12.20
2017-07-11T21:57:31.371Z,12.97
2017-07-11T22:00:03.785Z,12.53
2017-07-11T22:02:36.160Z,11.90
2017-07-11T22:05:08.727Z,10.67
2017-07-11T22:07:42.054Z,11.17
2017-07-11T22:10:14.493Z,11.73
2017-07-11T22:12:46.922Z,10.67
2017-07-11T22:15:19.356Z,10.60
2017-07-11T22:17:52.356Z,11.33
2017-07-11T22:20:24.232Z,11.80
2017-07-11T22:22:56.830Z,11.70
2017-07-11T22:25:29.150Z,12.30
2017-07-11T22:28:01.473Z,10.70
2017-07-11T22:30:34.200Z,11.80
2017-07-11T22:33:06.295Z,11.40
2017-07-11T22:35:38.729Z,12.30
2017-07-11T22:38:11.422Z,10.80
2017-07-11T22:40:45.186Z,11.30
2017-07-11T22:43:17.024Z,10.90
2017-07-11T22:45:49.458Z,11.03
2017-07-11T22:48:21.807Z,10.33
2017-07-11T22:50:54.140Z,10.90
2017-07-11T22:53:26.546Z,9.73
2017-07-11T22:55:58.909Z,10.10
2017-07-11T22:58:31.368Z,10.30
2017-07-11T23:01:04.588Z,11.20
2017-07-11T23:03:37.228Z,10.10
2017-07-11T23:06:09.993Z,10.33
2017-07-11T23:08:43.017Z,10.10
2017-07-11T23:11:15.438Z,10.87
2017-07-11T23:13:47.900Z,11.10
2017-07-11T23:16:20.216Z,11.00
2017-07-11T23:18:52.716Z,10.90
2017-07-11T23:21:24.898Z,9.97
2017-07-11T23:23:57.397Z,10.13
2017-07-11T23:26:29.617Z,11.07
2017-07-11T23:29:01.965Z,11.00
2017-07-11T23:31:34.419Z,10.30
2017-07-11T23:34:06.845Z,11.30
2017-07-11T23:36:39.189Z,10.80
2017-07-11T23:39:11.573Z,10.23
2017-07-11T23:41:43.998Z,11.50
2017-07-11T23:44:16.340Z,12.03
2017-07-11T23:46:48.765Z,11.40
2017-07-11T23:49:21.094Z,10.93
2017-07-11T23:51:53.548Z,11.83
2017-07-11T23:54:25.976Z,11.50
2017-07-11T23:56:58.396Z,12.60
2017-07-11T23:59:30.769Z,13.60
